sensor_id;sensor_type;location;lat;lon;timestamp;P1;durP1;ratioP1;P2;durP2;ratioP2
62463;SDS011;48512;48.552;9.380;2023-05-07T00:00:45;7.85;;;5.53;;
62463;SDS011;48512;48.552;9.380;2023-05-07T00:03:11;7.93;;;5.78;;
62463;SDS011;48512;48.552;9.380;2023-05-07T00:05:39;6.90;;;5.57;;
62463;SDS011;48512;48.552;9.380;2023-05-07T00:08:05;8.88;;;5.53;;
62463;SDS011;48512;48.552;9.380;2023-05-07T00:10:31;7.43;;;5.22;;
62463;SDS011;48512;48.552;9.380;2023-05-07T00:12:57;9.88;;;5.95;;
62463;SDS011;48512;48.552;9.380;2023-05-07T00:15:24;7.57;;;5.60;;
62463;SDS011;48512;48.552;9.380;2023-05-07T00:17:50;12.75;;;5.30;;
62463;SDS011;48512;48.552;9.380;2023-05-07T00:20:16;7.22;;;5.78;;
62463;SDS011;48512;48.552;9.380;2023-05-07T00:22:42;9.40;;;5.80;;
62463;SDS011;48512;48.552;9.380;2023-05-07T00:25:08;8.45;;;5.97;;
62463;SDS011;48512;48.552;9.380;2023-05-07T00:27:36;10.43;;;6.68;;
62463;SDS011;48512;48.552;9.380;2023-05-07T00:30:02;9.23;;;6.68;;
62463;SDS011;48512;48.552;9.380;2023-05-07T00:32:31;8.00;;;5.65;;
62463;SDS011;48512;48.552;9.380;2023-05-07T00:34:58;10.13;;;5.45;;
62463;SDS011;48512;48.552;9.380;2023-05-07T00:37:24;12.10;;;5.95;;
62463;SDS011;48512;48.552;9.380;2023-05-07T00:39:50;8.45;;;6.60;;
62463;SDS011;48512;48.552;9.380;2023-05-07T00:42:16;11.52;;;7.07;;
62463;SDS011;48512;48.552;9.380;2023-05-07T00:44:42;9.02;;;6.70;;
62463;SDS011;48512;48.552;9.380;2023-05-07T00:47:08;7.97;;;6.43;;
62463;SDS011;48512;48.552;9.380;2023-05-07T00:49:38;10.77;;;6.68;;
62463;SDS011;48512;48.552;9.380;2023-05-07T00:52:07;9.00;;;6.68;;
62463;SDS011;48512;48.552;9.380;2023-05-07T00:54:34;9.00;;;7.05;;
62463;SDS011;48512;48.552;9.380;2023-05-07T00:57:02;11.68;;;7.00;;
62463;SDS011;48512;48.552;9.380;2023-05-07T00:59:30;9.60;;;7.28;;
62463;SDS011;48512;48.552;9.380;2023-05-07T01:01:57;11.05;;;7.03;;
62463;SDS011;48512;48.552;9.380;2023-05-07T01:04:24;7.70;;;6.20;;
62463;SDS011;48512;48.552;9.380;2023-05-07T01:06:50;15.30;;;6.28;;
62463;SDS011;48512;48.552;9.380;2023-05-07T01:09:18;9.48;;;6.47;;
62463;SDS011;48512;48.552;9.380;2023-05-07T01:11:46;9.38;;;6.30;;
62463;SDS011;48512;48.552;9.380;2023-05-07T01:14:13;9.77;;;6.90;;
62463;SDS011;48512;48.552;9.380;2023-05-07T01:16:39;9.43;;;7.05;;
62463;SDS011;48512;48.552;9.380;2023-05-07T01:19:08;11.20;;;6.25;;
62463;SDS011;48512;48.552;9.380;2023-05-07T01:21:37;9.48;;;7.03;;
62463;SDS011;48512;48.552;9.380;2023-05-07T01:24:05;8.73;;;6.55;;
62463;SDS011;48512;48.552;9.380;2023-05-07T01:26:32;8.80;;;6.43;;
62463;SDS011;48512;48.552;9.380;2023-05-07T01:28:58;9.10;;;6.75;;
62463;SDS011;48512;48.552;9.380;2023-05-07T01:31:25;11.05;;;6.75;;
62463;SDS011;48512;48.552;9.380;2023-05-07T01:33:51;8.05;;;6.18;;
62463;SDS011;48512;48.552;9.380;2023-05-07T01:36:18;9.45;;;6.90;;
62463;SDS011;48512;48.552;9.380;2023-05-07T01:38:47;7.67;;;6.47;;
62463;SDS011;48512;48.552;9.380;2023-05-07T01:41:13;7.07;;;5.55;;
62463;SDS011;48512;48.552;9.380;2023-05-07T01:43:40;6.65;;;4.90;;
62463;SDS011;48512;48.552;9.380;2023-05-07T01:46:08;7.35;;;4.82;;
62463;SDS011;48512;48.552;9.380;2023-05-07T01:48:36;9.63;;;4.90;;
62463;SDS011;48512;48.552;9.380;2023-05-07T01:51:03;6.15;;;4.72;;
62463;SDS011;48512;48.552;9.380;2023-05-07T01:53:35;6.65;;;4.68;;
62463;SDS011;48512;48.552;9.380;2023-05-07T01:56:02;7.28;;;4.20;;
62463;SDS011;48512;48.552;9.380;2023-05-07T01:58:30;5.85;;;4.22;;
62463;SDS011;48512;48.552;9.380;2023-05-07T02:00:56;4.20;;;3.80;;
62463;SDS011;48512;48.552;9.380;2023-05-07T02:03:23;6.85;;;4.38;;
62463;SDS011;48512;48.552;9.380;2023-05-07T02:05:56;7.50;;;4.22;;
62463;SDS011;48512;48.552;9.380;2023-05-07T02:08:40;5.28;;;3.75;;
62463;SDS011;48512;48.552;9.380;2023-05-07T02:11:07;4.20;;;3.78;;
62463;SDS011;48512;48.552;9.380;2023-05-07T02:13:36;6.80;;;4.15;;
62463;SDS011;48512;48.552;9.380;2023-05-07T02:16:02;6.18;;;3.58;;
62463;SDS011;48512;48.552;9.380;2023-05-07T02:18:29;7.80;;;3.80;;
62463;SDS011;48512;48.552;9.380;2023-05-07T02:20:55;4.97;;;4.20;;
62463;SDS011;48512;48.552;9.380;2023-05-07T02:23:21;4.68;;;4.13;;
62463;SDS011;48512;48.552;9.380;2023-05-07T02:25:48;8.00;;;4.68;;
62463;SDS011;48512;48.552;9.380;2023-05-07T02:28:14;7.28;;;4.40;;
62463;SDS011;48512;48.552;9.380;2023-05-07T02:30:54;6.80;;;4.47;;
62463;SDS011;48512;48.552;9.380;2023-05-07T02:33:21;7.13;;;4.70;;
62463;SDS011;48512;48.552;9.380;2023-05-07T02:35:47;7.07;;;5.28;;
62463;SDS011;48512;48.552;9.380;2023-05-07T02:38:15;7.63;;;5.57;;
62463;SDS011;48512;48.552;9.380;2023-05-07T02:40:41;8.75;;;5.20;;
62463;SDS011;48512;48.552;9.380;2023-05-07T02:43:07;8.73;;;4.95;;
62463;SDS011;48512;48.552;9.380;2023-05-07T02:45:34;6.82;;;5.07;;
62463;SDS011;48512;48.552;9.380;2023-05-07T02:48:03;6.50;;;5.22;;
62463;SDS011;48512;48.552;9.380;2023-05-07T02:50:31;7.82;;;5.13;;
62463;SDS011;48512;48.552;9.380;2023-05-07T02:52:58;5.72;;;4.97;;
62463;SDS011;48512;48.552;9.380;2023-05-07T02:55:24;9.07;;;6.05;;
62463;SDS011;48512;48.552;9.380;2023-05-07T02:57:51;8.90;;;6.07;;
62463;SDS011;48512;48.552;9.380;2023-05-07T03:00:17;10.27;;;5.93;;
62463;SDS011;48512;48.552;9.380;2023-05-07T03:02:52;7.43;;;5.68;;
62463;SDS011;48512;48.552;9.380;2023-05-07T03:05:18;7.07;;;5.70;;
62463;SDS011;48512;48.552;9.380;2023-05-07T03:07:45;8.98;;;5.82;;
62463;SDS011;48512;48.552;9.380;2023-05-07T03:10:12;11.35;;;6.18;;
62463;SDS011;48512;48.552;9.380;2023-05-07T03:12:38;7.80;;;5.95;;
62463;SDS011;48512;48.552;9.380;2023-05-07T03:15:05;11.82;;;6.50;;
62463;SDS011;48512;48.552;9.380;2023-05-07T03:17:32;9.02;;;6.28;;
62463;SDS011;48512;48.552;9.380;2023-05-07T03:19:58;9.88;;;6.53;;
62463;SDS011;48512;48.552;9.380;2023-05-07T03:22:24;9.45;;;6.80;;
62463;SDS011;48512;48.552;9.380;2023-05-07T03:24:51;8.32;;;6.53;;
62463;SDS011;48512;48.552;9.380;2023-05-07T03:27:17;8.43;;;6.75;;
62463;SDS011;48512;48.552;9.380;2023-05-07T03:29:43;7.10;;;6.30;;
62463;SDS011;48512;48.552;9.380;2023-05-07T03:32:09;8.52;;;5.72;;
62463;SDS011;48512;48.552;9.380;2023-05-07T03:34:36;12.55;;;6.47;;
62463;SDS011;48512;48.552;9.380;2023-05-07T03:37:02;11.27;;;6.38;;
62463;SDS011;48512;48.552;9.380;2023-05-07T03:39:28;7.72;;;5.57;;
62463;SDS011;48512;48.552;9.380;2023-05-07T03:41:54;7.35;;;5.38;;
62463;SDS011;48512;48.552;9.380;2023-05-07T03:44:21;9.23;;;5.10;;
62463;SDS011;48512;48.552;9.380;2023-05-07T03:46:49;7.22;;;5.03;;
62463;SDS011;48512;48.552;9.380;2023-05-07T03:49:15;8.20;;;5.93;;
62463;SDS011;48512;48.552;9.380;2023-05-07T03:51:42;8.25;;;5.28;;
62463;SDS011;48512;48.552;9.380;2023-05-07T03:54:08;8.15;;;5.60;;
62463;SDS011;48512;48.552;9.380;2023-05-07T03:56:35;9.40;;;6.15;;
62463;SDS011;48512;48.552;9.380;2023-05-07T03:59:02;9.55;;;6.68;;
62463;SDS011;48512;48.552;9.380;2023-05-07T04:01:28;10.68;;;6.60;;
62463;SDS011;48512;48.552;9.380;2023-05-07T04:03:55;8.30;;;6.20;;
62463;SDS011;48512;48.552;9.380;2023-05-07T04:06:22;11.63;;;5.88;;
62463;SDS011;48512;48.552;9.380;2023-05-07T04:08:49;7.72;;;5.50;;
62463;SDS011;48512;48.552;9.380;2023-05-07T04:11:15;7.28;;;6.20;;
62463;SDS011;48512;48.552;9.380;2023-05-07T04:13:41;10.95;;;6.30;;
62463;SDS011;48512;48.552;9.380;2023-05-07T04:16:09;8.40;;;5.57;;
62463;SDS011;48512;48.552;9.380;2023-05-07T04:18:37;9.25;;;5.90;;
62463;SDS011;48512;48.552;9.380;2023-05-07T04:21:04;8.82;;;6.25;;
62463;SDS011;48512;48.552;9.380;2023-05-07T04:23:30;11.10;;;7.43;;
62463;SDS011;48512;48.552;9.380;2023-05-07T04:26:01;7.63;;;5.95;;
62463;SDS011;48512;48.552;9.380;2023-05-07T04:28:35;13.80;;;6.47;;
62463;SDS011;48512;48.552;9.380;2023-05-07T04:31:02;10.57;;;7.13;;
62463;SDS011;48512;48.552;9.380;2023-05-07T04:33:31;10.38;;;6.80;;
62463;SDS011;48512;48.552;9.380;2023-05-07T04:35:58;11.20;;;6.35;;
62463;SDS011;48512;48.552;9.380;2023-05-07T04:38:29;11.93;;;7.20;;
62463;SDS011;48512;48.552;9.380;2023-05-07T04:41:02;10.38;;;6.43;;
62463;SDS011;48512;48.552;9.380;2023-05-07T04:43:29;12.15;;;6.68;;
62463;SDS011;48512;48.552;9.380;2023-05-07T04:45:55;9.57;;;6.63;;
62463;SDS011;48512;48.552;9.380;2023-05-07T04:48:24;11.30;;;7.35;;
62463;SDS011;48512;48.552;9.380;2023-05-07T04:50:52;12.95;;;7.10;;
62463;SDS011;48512;48.552;9.380;2023-05-07T04:53:19;11.38;;;7.05;;
62463;SDS011;48512;48.552;9.380;2023-05-07T04:55:47;9.75;;;7.00;;
62463;SDS011;48512;48.552;9.380;2023-05-07T04:58:14;11.57;;;7.20;;
62463;SDS011;48512;48.552;9.380;2023-05-07T05:00:41;9.55;;;7.50;;
62463;SDS011;48512;48.552;9.380;2023-05-07T05:03:08;12.85;;;6.93;;
62463;SDS011;48512;48.552;9.380;2023-05-07T05:05:36;9.25;;;7.43;;
62463;SDS011;48512;48.552;9.380;2023-05-07T05:08:03;13.10;;;7.18;;
62463;SDS011;48512;48.552;9.380;2023-05-07T05:10:29;8.23;;;6.50;;
62463;SDS011;48512;48.552;9.380;2023-05-07T05:12:56;9.07;;;5.72;;
62463;SDS011;48512;48.552;9.380;2023-05-07T05:15:23;11.05;;;6.93;;
62463;SDS011;48512;48.552;9.380;2023-05-07T05:17:49;9.05;;;6.47;;
62463;SDS011;48512;48.552;9.380;2023-05-07T05:20:15;11.07;;;6.90;;
62463;SDS011;48512;48.552;9.380;2023-05-07T05:22:41;10.43;;;7.00;;
62463;SDS011;48512;48.552;9.380;2023-05-07T05:25:09;8.82;;;6.78;;
62463;SDS011;48512;48.552;9.380;2023-05-07T05:27:35;10.23;;;6.82;;
62463;SDS011;48512;48.552;9.380;2023-05-07T05:30:02;10.85;;;7.47;;
62463;SDS011;48512;48.552;9.380;2023-05-07T05:32:30;9.13;;;7.28;;
62463;SDS011;48512;48.552;9.380;2023-05-07T05:35:00;9.50;;;7.07;;
62463;SDS011;48512;48.552;9.380;2023-05-07T05:39:53;10.05;;;7.00;;
62463;SDS011;48512;48.552;9.380;2023-05-07T05:42:21;9.98;;;7.05;;
62463;SDS011;48512;48.552;9.380;2023-05-07T05:44:47;10.85;;;7.15;;
62463;SDS011;48512;48.552;9.380;2023-05-07T05:47:16;14.00;;;7.55;;
62463;SDS011;48512;48.552;9.380;2023-05-07T05:49:42;11.73;;;7.65;;
62463;SDS011;48512;48.552;9.380;2023-05-07T05:52:11;10.98;;;7.75;;
62463;SDS011;48512;48.552;9.380;2023-05-07T05:54:38;8.30;;;6.93;;
62463;SDS011;48512;48.552;9.380;2023-05-07T05:57:05;9.10;;;7.30;;
62463;SDS011;48512;48.552;9.380;2023-05-07T05:59:32;9.18;;;7.25;;
62463;SDS011;48512;48.552;9.380;2023-05-07T06:01:58;9.98;;;6.68;;
62463;SDS011;48512;48.552;9.380;2023-05-07T06:04:24;8.80;;;6.82;;
62463;SDS011;48512;48.552;9.380;2023-05-07T06:06:50;10.75;;;6.90;;
62463;SDS011;48512;48.552;9.380;2023-05-07T06:09:17;8.57;;;6.50;;
62463;SDS011;48512;48.552;9.380;2023-05-07T06:11:44;8.85;;;6.82;;
62463;SDS011;48512;48.552;9.380;2023-05-07T06:14:11;9.20;;;6.93;;
62463;SDS011;48512;48.552;9.380;2023-05-07T06:16:38;10.73;;;6.82;;
62463;SDS011;48512;48.552;9.380;2023-05-07T06:19:06;10.65;;;6.60;;
62463;SDS011;48512;48.552;9.380;2023-05-07T06:21:32;9.85;;;7.20;;
62463;SDS011;48512;48.552;9.380;2023-05-07T06:23:58;9.55;;;5.10;;
62463;SDS011;48512;48.552;9.380;2023-05-07T06:26:24;10.43;;;5.93;;
62463;SDS011;48512;48.552;9.380;2023-05-07T06:28:52;8.88;;;6.70;;
62463;SDS011;48512;48.552;9.380;2023-05-07T06:31:18;8.07;;;6.57;;
62463;SDS011;48512;48.552;9.380;2023-05-07T06:33:56;11.27;;;6.60;;
62463;SDS011;48512;48.552;9.380;2023-05-07T06:36:29;10.55;;;6.88;;
62463;SDS011;48512;48.552;9.380;2023-05-07T06:38:57;9.50;;;6.97;;
62463;SDS011;48512;48.552;9.380;2023-05-07T06:41:23;8.35;;;6.55;;
62463;SDS011;48512;48.552;9.380;2023-05-07T06:43:50;9.50;;;6.50;;
62463;SDS011;48512;48.552;9.380;2023-05-07T06:46:27;11.00;;;6.43;;
62463;SDS011;48512;48.552;9.380;2023-05-07T06:48:53;9.82;;;7.00;;
62463;SDS011;48512;48.552;9.380;2023-05-07T06:51:19;9.77;;;7.00;;
62463;SDS011;48512;48.552;9.380;2023-05-07T06:53:46;11.57;;;7.10;;
62463;SDS011;48512;48.552;9.380;2023-05-07T06:56:12;9.13;;;6.80;;
62463;SDS011;48512;48.552;9.380;2023-05-07T06:58:39;8.63;;;6.07;;
62463;SDS011;48512;48.552;9.380;2023-05-07T07:01:06;7.10;;;5.60;;
62463;SDS011;48512;48.552;9.380;2023-05-07T07:03:33;6.85;;;5.75;;
62463;SDS011;48512;48.552;9.380;2023-05-07T07:05:59;8.95;;;5.45;;
62463;SDS011;48512;48.552;9.380;2023-05-07T07:08:27;7.72;;;5.63;;
62463;SDS011;48512;48.552;9.380;2023-05-07T07:10:54;10.07;;;5.20;;
62463;SDS011;48512;48.552;9.380;2023-05-07T07:13:20;9.70;;;5.22;;
62463;SDS011;48512;48.552;9.380;2023-05-07T07:15:46;10.27;;;5.80;;
62463;SDS011;48512;48.552;9.380;2023-05-07T07:18:12;7.97;;;5.20;;
62463;SDS011;48512;48.552;9.380;2023-05-07T07:20:39;15.15;;;5.32;;
62463;SDS011;48512;48.552;9.380;2023-05-07T07:23:07;6.50;;;5.55;;
62463;SDS011;48512;48.552;9.380;2023-05-07T07:25:33;8.07;;;5.20;;
62463;SDS011;48512;48.552;9.380;2023-05-07T07:28:00;7.50;;;5.47;;
62463;SDS011;48512;48.552;9.380;2023-05-07T07:30:27;7.85;;;4.63;;
62463;SDS011;48512;48.552;9.380;2023-05-07T07:32:53;8.38;;;5.10;;
62463;SDS011;48512;48.552;9.380;2023-05-07T07:35:20;9.20;;;5.13;;
62463;SDS011;48512;48.552;9.380;2023-05-07T07:37:48;7.63;;;4.60;;
62463;SDS011;48512;48.552;9.380;2023-05-07T07:40:16;6.70;;;4.97;;
62463;SDS011;48512;48.552;9.380;2023-05-07T07:42:43;9.63;;;5.57;;
62463;SDS011;48512;48.552;9.380;2023-05-07T07:45:11;7.63;;;5.10;;
62463;SDS011;48512;48.552;9.380;2023-05-07T07:47:41;6.75;;;5.07;;
62463;SDS011;48512;48.552;9.380;2023-05-07T07:50:08;5.90;;;5.13;;
62463;SDS011;48512;48.552;9.380;2023-05-07T07:52:36;8.80;;;5.05;;
62463;SDS011;48512;48.552;9.380;2023-05-07T07:55:02;9.02;;;5.47;;
62463;SDS011;48512;48.552;9.380;2023-05-07T07:57:30;5.38;;;4.70;;
62463;SDS011;48512;48.552;9.380;2023-05-07T07:59:57;7.18;;;5.15;;
62463;SDS011;48512;48.552;9.380;2023-05-07T08:02:23;5.63;;;5.03;;
62463;SDS011;48512;48.552;9.380;2023-05-07T08:04:50;8.02;;;4.70;;
62463;SDS011;48512;48.552;9.380;2023-05-07T08:07:17;6.88;;;4.65;;
62463;SDS011;48512;48.552;9.380;2023-05-07T08:09:47;9.23;;;4.63;;
62463;SDS011;48512;48.552;9.380;2023-05-07T08:12:15;5.68;;;4.78;;
62463;SDS011;48512;48.552;9.380;2023-05-07T08:14:42;33.17;;;5.75;;
62463;SDS011;48512;48.552;9.380;2023-05-07T08:17:08;24.33;;;5.60;;
62463;SDS011;48512;48.552;9.380;2023-05-07T08:19:36;28.02;;;5.47;;
62463;SDS011;48512;48.552;9.380;2023-05-07T08:22:04;23.95;;;4.95;;
62463;SDS011;48512;48.552;9.380;2023-05-07T08:24:32;13.20;;;4.77;;
62463;SDS011;48512;48.552;9.380;2023-05-07T08:26:59;10.68;;;4.60;;
62463;SDS011;48512;48.552;9.380;2023-05-07T08:29:25;9.05;;;4.60;;
62463;SDS011;48512;48.552;9.380;2023-05-07T08:31:52;6.55;;;5.25;;
62463;SDS011;48512;48.552;9.380;2023-05-07T08:34:18;6.55;;;5.43;;
62463;SDS011;48512;48.552;9.380;2023-05-07T08:36:46;8.02;;;5.10;;
62463;SDS011;48512;48.552;9.380;2023-05-07T08:39:15;7.45;;;5.03;;
62463;SDS011;48512;48.552;9.380;2023-05-07T08:41:46;5.20;;;4.57;;
62463;SDS011;48512;48.552;9.380;2023-05-07T08:44:14;7.30;;;5.10;;
62463;SDS011;48512;48.552;9.380;2023-05-07T08:46:45;5.95;;;4.55;;
62463;SDS011;48512;48.552;9.380;2023-05-07T08:49:15;5.10;;;4.60;;
62463;SDS011;48512;48.552;9.380;2023-05-07T08:51:42;10.88;;;4.85;;
62463;SDS011;48512;48.552;9.380;2023-05-07T08:54:09;9.73;;;4.53;;
62463;SDS011;48512;48.552;9.380;2023-05-07T08:56:37;18.77;;;5.43;;
62463;SDS011;48512;48.552;9.380;2023-05-07T08:59:03;6.07;;;4.50;;
62463;SDS011;48512;48.552;9.380;2023-05-07T09:01:30;6.43;;;4.95;;
62463;SDS011;48512;48.552;9.380;2023-05-07T09:03:57;7.70;;;4.70;;
62463;SDS011;48512;48.552;9.380;2023-05-07T09:06:25;16.33;;;5.20;;
62463;SDS011;48512;48.552;9.380;2023-05-07T09:08:53;9.52;;;4.95;;
62463;SDS011;48512;48.552;9.380;2023-05-07T09:11:23;7.68;;;4.72;;
62463;SDS011;48512;48.552;9.380;2023-05-07T09:13:54;5.93;;;4.30;;
62463;SDS011;48512;48.552;9.380;2023-05-07T09:16:23;5.68;;;4.38;;
62463;SDS011;48512;48.552;9.380;2023-05-07T09:18:52;6.28;;;4.50;;
62463;SDS011;48512;48.552;9.380;2023-05-07T09:21:21;5.10;;;4.15;;
62463;SDS011;48512;48.552;9.380;2023-05-07T09:23:50;5.22;;;4.15;;
62463;SDS011;48512;48.552;9.380;2023-05-07T09:26:20;8.20;;;4.38;;
62463;SDS011;48512;48.552;9.380;2023-05-07T09:31:14;4.22;;;3.58;;
62463;SDS011;48512;48.552;9.380;2023-05-07T09:33:41;4.88;;;3.38;;
62463;SDS011;48512;48.552;9.380;2023-05-07T09:36:10;3.80;;;2.70;;
62463;SDS011;48512;48.552;9.380;2023-05-07T09:38:38;7.80;;;3.20;;
62463;SDS011;48512;48.552;9.380;2023-05-07T09:43:37;4.03;;;3.13;;
62463;SDS011;48512;48.552;9.380;2023-05-07T09:46:13;6.05;;;3.58;;
62463;SDS011;48512;48.552;9.380;2023-05-07T09:48:46;3.80;;;3.40;;
62463;SDS011;48512;48.552;9.380;2023-05-07T09:54:04;4.53;;;3.50;;
62463;SDS011;48512;48.552;9.380;2023-05-07T09:56:33;4.00;;;2.97;;
62463;SDS011;48512;48.552;9.380;2023-05-07T09:59:01;3.40;;;3.10;;
62463;SDS011;48512;48.552;9.380;2023-05-07T10:01:31;4.05;;;3.10;;
62463;SDS011;48512;48.552;9.380;2023-05-07T10:03:58;5.03;;;3.03;;
62463;SDS011;48512;48.552;9.380;2023-05-07T10:06:25;5.22;;;3.38;;
62463;SDS011;48512;48.552;9.380;2023-05-07T10:08:52;4.97;;;3.53;;
62463;SDS011;48512;48.552;9.380;2023-05-07T10:11:19;4.22;;;3.28;;
62463;SDS011;48512;48.552;9.380;2023-05-07T10:13:46;4.15;;;3.20;;
62463;SDS011;48512;48.552;9.380;2023-05-07T10:16:13;7.18;;;3.40;;
62463;SDS011;48512;48.552;9.380;2023-05-07T10:18:45;3.22;;;2.65;;
62463;SDS011;48512;48.552;9.380;2023-05-07T10:21:18;4.78;;;3.20;;
62463;SDS011;48512;48.552;9.380;2023-05-07T10:24:00;5.95;;;2.88;;
62463;SDS011;48512;48.552;9.380;2023-05-07T10:26:44;3.40;;;2.60;;
62463;SDS011;48512;48.552;9.380;2023-05-07T10:29:18;3.42;;;2.88;;
62463;SDS011;48512;48.552;9.380;2023-05-07T10:32:39;5.45;;;2.63;;
62463;SDS011;48512;48.552;9.380;2023-05-07T10:34:46;4.07;;;2.95;;
62463;SDS011;48512;48.552;9.380;2023-05-07T10:37:16;4.80;;;2.83;;
62463;SDS011;48512;48.552;9.380;2023-05-07T10:39:43;5.03;;;4.07;;
62463;SDS011;48512;48.552;9.380;2023-05-07T10:42:11;5.90;;;3.55;;
62463;SDS011;48512;48.552;9.380;2023-05-07T10:44:43;5.03;;;3.40;;
62463;SDS011;48512;48.552;9.380;2023-05-07T10:47:16;4.20;;;3.13;;
62463;SDS011;48512;48.552;9.380;2023-05-07T10:52:22;3.53;;;3.10;;
62463;SDS011;48512;48.552;9.380;2023-05-07T10:58:29;3.30;;;2.50;;
62463;SDS011;48512;48.552;9.380;2023-05-07T11:01:04;6.90;;;2.95;;
62463;SDS011;48512;48.552;9.380;2023-05-07T11:03:36;5.78;;;3.10;;
62463;SDS011;48512;48.552;9.380;2023-05-07T11:06:38;3.45;;;2.80;;
62463;SDS011;48512;48.552;9.380;2023-05-07T11:09:09;4.70;;;2.90;;
62463;SDS011;48512;48.552;9.380;2023-05-07T11:11:52;3.88;;;3.25;;
62463;SDS011;48512;48.552;9.380;2023-05-07T11:17:22;6.55;;;3.40;;
62463;SDS011;48512;48.552;9.380;2023-05-07T11:19:55;5.38;;;3.38;;
62463;SDS011;48512;48.552;9.380;2023-05-07T11:22:37;3.40;;;3.05;;
62463;SDS011;48512;48.552;9.380;2023-05-07T11:25:14;3.47;;;2.92;;
62463;SDS011;48512;48.552;9.380;2023-05-07T11:27:44;3.83;;;3.17;;
62463;SDS011;48512;48.552;9.380;2023-05-07T11:30:16;7.13;;;4.10;;
62463;SDS011;48512;48.552;9.380;2023-05-07T11:32:46;5.88;;;3.92;;
62463;SDS011;48512;48.552;9.380;2023-05-07T11:35:17;4.28;;;3.83;;
62463;SDS011;48512;48.552;9.380;2023-05-07T11:37:48;6.90;;;4.13;;
62463;SDS011;48512;48.552;9.380;2023-05-07T11:40:15;17.95;;;7.60;;
62463;SDS011;48512;48.552;9.380;2023-05-07T11:42:42;16.42;;;6.38;;
62463;SDS011;48512;48.552;9.380;2023-05-07T11:45:08;13.32;;;5.43;;
62463;SDS011;48512;48.552;9.380;2023-05-07T11:47:35;11.55;;;4.72;;
62463;SDS011;48512;48.552;9.380;2023-05-07T11:50:05;10.50;;;5.10;;
62463;SDS011;48512;48.552;9.380;2023-05-07T11:52:33;12.65;;;4.80;;
62463;SDS011;48512;48.552;9.380;2023-05-07T11:55:00;12.85;;;5.28;;
62463;SDS011;48512;48.552;9.380;2023-05-07T11:57:29;15.02;;;5.68;;
62463;SDS011;48512;48.552;9.380;2023-05-07T11:59:56;12.20;;;3.88;;
62463;SDS011;48512;48.552;9.380;2023-05-07T12:02:23;9.90;;;4.10;;
62463;SDS011;48512;48.552;9.380;2023-05-07T12:04:54;11.65;;;4.95;;
62463;SDS011;48512;48.552;9.380;2023-05-07T12:07:20;9.52;;;4.78;;
62463;SDS011;48512;48.552;9.380;2023-05-07T12:09:47;5.60;;;4.20;;
62463;SDS011;48512;48.552;9.380;2023-05-07T12:12:13;14.13;;;6.80;;
62463;SDS011;48512;48.552;9.380;2023-05-07T12:14:41;16.55;;;6.38;;
62463;SDS011;48512;48.552;9.380;2023-05-07T12:17:09;11.43;;;4.53;;
62463;SDS011;48512;48.552;9.380;2023-05-07T12:19:37;6.82;;;3.70;;
62463;SDS011;48512;48.552;9.380;2023-05-07T12:22:04;11.52;;;4.55;;
62463;SDS011;48512;48.552;9.380;2023-05-07T12:27:12;9.45;;;4.60;;
62463;SDS011;48512;48.552;9.380;2023-05-07T12:29:46;9.90;;;4.57;;
62463;SDS011;48512;48.552;9.380;2023-05-07T12:32:16;7.60;;;4.93;;
62463;SDS011;48512;48.552;9.380;2023-05-07T12:34:43;6.28;;;5.32;;
62463;SDS011;48512;48.552;9.380;2023-05-07T12:37:10;6.05;;;4.68;;
62463;SDS011;48512;48.552;9.380;2023-05-07T12:39:43;7.13;;;4.88;;
62463;SDS011;48512;48.552;9.380;2023-05-07T12:42:14;11.38;;;5.82;;
62463;SDS011;48512;48.552;9.380;2023-05-07T12:44:41;9.15;;;5.80;;
62463;SDS011;48512;48.552;9.380;2023-05-07T12:47:10;7.28;;;5.38;;
62463;SDS011;48512;48.552;9.380;2023-05-07T12:49:38;8.68;;;5.25;;
62463;SDS011;48512;48.552;9.380;2023-05-07T12:52:05;9.05;;;5.82;;
62463;SDS011;48512;48.552;9.380;2023-05-07T12:54:32;7.80;;;5.57;;
62463;SDS011;48512;48.552;9.380;2023-05-07T12:57:07;8.40;;;5.47;;
62463;SDS011;48512;48.552;9.380;2023-05-07T12:59:34;9.18;;;5.88;;
62463;SDS011;48512;48.552;9.380;2023-05-07T13:02:02;8.80;;;5.95;;
62463;SDS011;48512;48.552;9.380;2023-05-07T13:04:29;10.40;;;6.82;;
62463;SDS011;48512;48.552;9.380;2023-05-07T13:06:55;12.73;;;6.57;;
62463;SDS011;48512;48.552;9.380;2023-05-07T13:09:21;8.38;;;6.35;;
62463;SDS011;48512;48.552;9.380;2023-05-07T13:11:47;8.15;;;5.85;;
62463;SDS011;48512;48.552;9.380;2023-05-07T13:14:14;6.28;;;5.32;;
62463;SDS011;48512;48.552;9.380;2023-05-07T13:16:40;6.35;;;4.72;;
62463;SDS011;48512;48.552;9.380;2023-05-07T13:19:07;5.20;;;3.65;;
62463;SDS011;48512;48.552;9.380;2023-05-07T13:21:33;4.82;;;4.38;;
62463;SDS011;48512;48.552;9.380;2023-05-07T13:23:59;9.32;;;4.18;;
62463;SDS011;48512;48.552;9.380;2023-05-07T13:26:25;4.68;;;3.67;;
62463;SDS011;48512;48.552;9.380;2023-05-07T13:28:53;4.63;;;3.50;;
62463;SDS011;48512;48.552;9.380;2023-05-07T13:31:20;4.85;;;3.70;;
62463;SDS011;48512;48.552;9.380;2023-05-07T13:33:46;4.70;;;3.95;;
62463;SDS011;48512;48.552;9.380;2023-05-07T13:36:13;8.07;;;4.53;;
62463;SDS011;48512;48.552;9.380;2023-05-07T13:38:39;8.88;;;4.88;;
62463;SDS011;48512;48.552;9.380;2023-05-07T13:41:05;6.60;;;5.22;;
62463;SDS011;48512;48.552;9.380;2023-05-07T13:43:32;7.88;;;4.50;;
62463;SDS011;48512;48.552;9.380;2023-05-07T13:45:59;6.35;;;4.30;;
62463;SDS011;48512;48.552;9.380;2023-05-07T13:48:26;4.43;;;3.83;;
62463;SDS011;48512;48.552;9.380;2023-05-07T13:50:54;5.63;;;3.75;;
62463;SDS011;48512;48.552;9.380;2023-05-07T13:53:20;6.70;;;3.50;;
62463;SDS011;48512;48.552;9.380;2023-05-07T13:55:46;5.10;;;3.53;;
62463;SDS011;48512;48.552;9.380;2023-05-07T13:58:13;4.57;;;3.20;;
62463;SDS011;48512;48.552;9.380;2023-05-07T14:00:39;4.35;;;3.30;;
62463;SDS011;48512;48.552;9.380;2023-05-07T14:03:06;5.97;;;4.00;;
62463;SDS011;48512;48.552;9.380;2023-05-07T14:05:32;5.75;;;4.13;;
62463;SDS011;48512;48.552;9.380;2023-05-07T14:07:58;6.20;;;3.50;;
62463;SDS011;48512;48.552;9.380;2023-05-07T14:10:24;6.88;;;3.50;;
62463;SDS011;48512;48.552;9.380;2023-05-07T14:12:51;4.70;;;3.35;;
62463;SDS011;48512;48.552;9.380;2023-05-07T14:15:18;4.10;;;3.70;;
62463;SDS011;48512;48.552;9.380;2023-05-07T14:17:44;5.45;;;3.83;;
62463;SDS011;48512;48.552;9.380;2023-05-07T14:20:11;6.05;;;4.15;;
62463;SDS011;48512;48.552;9.380;2023-05-07T14:22:38;5.78;;;4.22;;
62463;SDS011;48512;48.552;9.380;2023-05-07T14:25:05;4.72;;;4.00;;
62463;SDS011;48512;48.552;9.380;2023-05-07T14:27:31;5.65;;;3.78;;
62463;SDS011;48512;48.552;9.380;2023-05-07T14:29:58;6.25;;;4.30;;
62463;SDS011;48512;48.552;9.380;2023-05-07T14:32:24;8.00;;;4.82;;
62463;SDS011;48512;48.552;9.380;2023-05-07T14:34:50;6.68;;;4.65;;
62463;SDS011;48512;48.552;9.380;2023-05-07T14:37:16;10.98;;;4.82;;
62463;SDS011;48512;48.552;9.380;2023-05-07T14:39:45;7.43;;;5.28;;
62463;SDS011;48512;48.552;9.380;2023-05-07T14:42:11;8.95;;;5.10;;
62463;SDS011;48512;48.552;9.380;2023-05-07T14:44:38;8.05;;;5.10;;
62463;SDS011;48512;48.552;9.380;2023-05-07T14:47:07;7.22;;;5.28;;
62463;SDS011;48512;48.552;9.380;2023-05-07T14:49:33;11.30;;;6.05;;
62463;SDS011;48512;48.552;9.380;2023-05-07T14:52:00;9.07;;;5.50;;
62463;SDS011;48512;48.552;9.380;2023-05-07T14:54:26;9.55;;;5.60;;
62463;SDS011;48512;48.552;9.380;2023-05-07T14:56:52;8.40;;;5.55;;
62463;SDS011;48512;48.552;9.380;2023-05-07T14:59:19;9.40;;;5.00;;
62463;SDS011;48512;48.552;9.380;2023-05-07T15:01:47;6.53;;;5.57;;
62463;SDS011;48512;48.552;9.380;2023-05-07T15:04:13;7.72;;;5.00;;
62463;SDS011;48512;48.552;9.380;2023-05-07T15:06:40;7.72;;;5.55;;
62463;SDS011;48512;48.552;9.380;2023-05-07T15:09:06;14.98;;;8.38;;
62463;SDS011;48512;48.552;9.380;2023-05-07T15:11:34;10.18;;;6.35;;